<?xml version="1.0" encoding="UTF-8" standalone="no" ?>
<gpx xmlns="http://www.topografix.com/GPX/1/1" xmlns:xsi="http://www.w3.org/2001/XMLSchema-instance" xsi:schemaLocation="http://www.topografix.com/GPX/1/1 http://www.topografix.com/GPX/1/1/gpx.xsd" version="1.1" creator="VisuGPX - https://www.visugpx.com">
  <metadata>
    <name>Circuit du 05-06-2012</name>
    <desc><![CDATA[Circuit du 05-06-2012]]></desc>
  </metadata>
  <wpt lat="45.37594" lon="3.74935">
    <ele>706.20001220703</ele>
    <name><![CDATA[Start]]></name>
  </wpt>
  <wpt lat="45.38288" lon="3.75118">
    <ele>667.90002441406</ele>
    <name><![CDATA[End]]></name>
  </wpt>
  <trk>
    <name><![CDATA[Circuit du 05-06-2012_1]]></name>
    <trkseg>
      <trkpt lat="45.37594" lon="3.74935">
        <ele>706.20001220703</ele>
        <time>2012-06-05T07:22:23Z</time>
      </trkpt>
      <trkpt lat="45.37598" lon="3.74957">
        <ele>704.70001220703</ele>
        <time>2012-06-05T07:22:28Z</time>
      </trkpt>
      <trkpt lat="45.37597" lon="3.74964">
        <ele>703.40002441406</ele>
        <time>2012-06-05T07:22:31Z</time>
      </trkpt>
      <trkpt lat="45.37596" lon="3.74971">
        <ele>703.79998779297</ele>
        <time>2012-06-05T07:22:32Z</time>
      </trkpt>
      <trkpt lat="45.37595" lon="3.74981">
        <ele>704.29998779297</ele>
        <time>2012-06-05T07:22:36Z</time>
      </trkpt>
      <trkpt lat="45.37594" lon="3.74996">
        <ele>701.5</ele>
        <time>2012-06-05T07:22:41Z</time>
      </trkpt>
      <trkpt lat="45.37593" lon="3.75005">
        <ele>699.20001220703</ele>
        <time>2012-06-05T07:22:43Z</time>
      </trkpt>
      <trkpt lat="45.37591" lon="3.7502">
        <ele>697.09997558594</ele>
        <time>2012-06-05T07:22:49Z</time>
      </trkpt>
      <trkpt lat="45.37593" lon="3.7503">
        <ele>697.5</ele>
        <time>2012-06-05T07:22:52Z</time>
      </trkpt>
      <trkpt lat="45.37594" lon="3.75038">
        <ele>696.70001220703</ele>
        <time>2012-06-05T07:22:54Z</time>
      </trkpt>
      <trkpt lat="45.37595" lon="3.75051">
        <ele>696.59997558594</ele>
        <time>2012-06-05T07:22:58Z</time>
      </trkpt>
      <trkpt lat="45.37597" lon="3.75059">
        <ele>698.09997558594</ele>
        <time>2012-06-05T07:23:01Z</time>
      </trkpt>
      <trkpt lat="45.376" lon="3.75065">
        <ele>698.40002441406</ele>
        <time>2012-06-05T07:23:02Z</time>
      </trkpt>
      <trkpt lat="45.37604" lon="3.75071">
        <ele>697.70001220703</ele>
        <time>2012-06-05T07:23:05Z</time>
      </trkpt>
      <trkpt lat="45.37606" lon="3.75078">
        <ele>696.90002441406</ele>
        <time>2012-06-05T07:23:09Z</time>
      </trkpt>
      <trkpt lat="45.37609" lon="3.75084">
        <ele>696.70001220703</ele>
        <time>2012-06-05T07:23:10Z</time>
      </trkpt>
      <trkpt lat="45.37613" lon="3.75087">
        <ele>697.29998779297</ele>
        <time>2012-06-05T07:23:12Z</time>
      </trkpt>
      <trkpt lat="45.37618" lon="3.75091">
        <ele>695.5</ele>
        <time>2012-06-05T07:23:15Z</time>
      </trkpt>
      <trkpt lat="45.37623" lon="3.75095">
        <ele>696.90002441406</ele>
        <time>2012-06-05T07:23:17Z</time>
      </trkpt>
      <trkpt lat="45.37628" lon="3.75101">
        <ele>698.70001220703</ele>
        <time>2012-06-05T07:23:21Z</time>
      </trkpt>
      <trkpt lat="45.37632" lon="3.75108">
        <ele>698.90002441406</ele>
        <time>2012-06-05T07:23:23Z</time>
      </trkpt>
      <trkpt lat="45.37634" lon="3.75114">
        <ele>698.59997558594</ele>
        <time>2012-06-05T07:23:25Z</time>
      </trkpt>
      <trkpt lat="45.37638" lon="3.75122">
        <ele>698.90002441406</ele>
        <time>2012-06-05T07:23:28Z</time>
      </trkpt>
      <trkpt lat="45.37641" lon="3.75129">
        <ele>697.79998779297</ele>
        <time>2012-06-05T07:23:31Z</time>
      </trkpt>
      <trkpt lat="45.37642" lon="3.75135">
        <ele>696.70001220703</ele>
        <time>2012-06-05T07:23:33Z</time>
      </trkpt>
      <trkpt lat="45.37644" lon="3.75141">
        <ele>697.29998779297</ele>
        <time>2012-06-05T07:23:35Z</time>
      </trkpt>
      <trkpt lat="45.37645" lon="3.75148">
        <ele>698.09997558594</ele>
        <time>2012-06-05T07:23:37Z</time>
      </trkpt>
      <trkpt lat="45.37646" lon="3.75156">
        <ele>697.5</ele>
        <time>2012-06-05T07:23:40Z</time>
      </trkpt>
      <trkpt lat="45.37646" lon="3.75163">
        <ele>697.09997558594</ele>
        <time>2012-06-05T07:23:42Z</time>
      </trkpt>
      <trkpt lat="45.37646" lon="3.75173">
        <ele>696.90002441406</ele>
        <time>2012-06-05T07:23:45Z</time>
      </trkpt>
      <trkpt lat="45.37646" lon="3.75193">
        <ele>696.40002441406</ele>
        <time>2012-06-05T07:23:51Z</time>
      </trkpt>
      <trkpt lat="45.37646" lon="3.75201">
        <ele>694.70001220703</ele>
        <time>2012-06-05T07:23:54Z</time>
      </trkpt>
      <trkpt lat="45.37645" lon="3.75208">
        <ele>694.29998779297</ele>
        <time>2012-06-05T07:23:57Z</time>
      </trkpt>
      <trkpt lat="45.37646" lon="3.75216">
        <ele>692.70001220703</ele>
        <time>2012-06-05T07:24:00Z</time>
      </trkpt>
      <trkpt lat="45.37645" lon="3.75223">
        <ele>694.5</ele>
        <time>2012-06-05T07:24:02Z</time>
      </trkpt>
      <trkpt lat="45.37644" lon="3.75231">
        <ele>694.29998779297</ele>
        <time>2012-06-05T07:24:05Z</time>
      </trkpt>
      <trkpt lat="45.37643" lon="3.7524">
        <ele>694</ele>
        <time>2012-06-05T07:24:08Z</time>
      </trkpt>
      <trkpt lat="45.37643" lon="3.75248">
        <ele>694.70001220703</ele>
        <time>2012-06-05T07:24:11Z</time>
      </trkpt>
      <trkpt lat="45.37643" lon="3.75256">
        <ele>694.79998779297</ele>
        <time>2012-06-05T07:24:15Z</time>
      </trkpt>
      <trkpt lat="45.37641" lon="3.75263">
        <ele>693.79998779297</ele>
        <time>2012-06-05T07:24:18Z</time>
      </trkpt>
      <trkpt lat="45.37639" lon="3.75271">
        <ele>691.20001220703</ele>
        <time>2012-06-05T07:24:21Z</time>
      </trkpt>
      <trkpt lat="45.37631" lon="3.75288">
        <ele>691.59997558594</ele>
        <time>2012-06-05T07:24:28Z</time>
      </trkpt>
      <trkpt lat="45.37631" lon="3.75295">
        <ele>692.70001220703</ele>
        <time>2012-06-05T07:24:31Z</time>
      </trkpt>
      <trkpt lat="45.37638" lon="3.75327">
        <ele>689.59997558594</ele>
        <time>2012-06-05T07:24:42Z</time>
      </trkpt>
      <trkpt lat="45.37641" lon="3.75332">
        <ele>688.20001220703</ele>
        <time>2012-06-05T07:24:44Z</time>
      </trkpt>
      <trkpt lat="45.37643" lon="3.7534">
        <ele>687.09997558594</ele>
        <time>2012-06-05T07:24:47Z</time>
      </trkpt>
      <trkpt lat="45.37642" lon="3.75346">
        <ele>686.5</ele>
        <time>2012-06-05T07:24:49Z</time>
      </trkpt>
      <trkpt lat="45.37643" lon="3.75354">
        <ele>685.40002441406</ele>
        <time>2012-06-05T07:24:52Z</time>
      </trkpt>
      <trkpt lat="45.37646" lon="3.75364">
        <ele>684</ele>
        <time>2012-06-05T07:24:57Z</time>
      </trkpt>
      <trkpt lat="45.37647" lon="3.75372">
        <ele>684.90002441406</ele>
        <time>2012-06-05T07:25:00Z</time>
      </trkpt>
      <trkpt lat="45.37646" lon="3.7538">
        <ele>683.09997558594</ele>
        <time>2012-06-05T07:25:03Z</time>
      </trkpt>
      <trkpt lat="45.37644" lon="3.75389">
        <ele>684</ele>
        <time>2012-06-05T07:25:06Z</time>
      </trkpt>
      <trkpt lat="45.3764" lon="3.75394">
        <ele>685</ele>
        <time>2012-06-05T07:25:09Z</time>
      </trkpt>
      <trkpt lat="45.37635" lon="3.75395">
        <ele>686.20001220703</ele>
        <time>2012-06-05T07:25:11Z</time>
      </trkpt>
      <trkpt lat="45.3763" lon="3.75396">
        <ele>687.90002441406</ele>
        <time>2012-06-05T07:25:13Z</time>
      </trkpt>
      <trkpt lat="45.37626" lon="3.75397">
        <ele>687.5</ele>
        <time>2012-06-05T07:25:15Z</time>
      </trkpt>
      <trkpt lat="45.3762" lon="3.75397">
        <ele>689</ele>
        <time>2012-06-05T07:25:18Z</time>
      </trkpt>
      <trkpt lat="45.37614" lon="3.75399">
        <ele>689.20001220703</ele>
        <time>2012-06-05T07:25:21Z</time>
      </trkpt>
      <trkpt lat="45.37608" lon="3.75401">
        <ele>688.59997558594</ele>
        <time>2012-06-05T07:25:24Z</time>
      </trkpt>
      <trkpt lat="45.37603" lon="3.75402">
        <ele>686.20001220703</ele>
        <time>2012-06-05T07:25:27Z</time>
      </trkpt>
      <trkpt lat="45.37598" lon="3.75403">
        <ele>686.29998779297</ele>
        <time>2012-06-05T07:25:29Z</time>
      </trkpt>
      <trkpt lat="45.37591" lon="3.75403">
        <ele>687.59997558594</ele>
        <time>2012-06-05T07:25:32Z</time>
      </trkpt>
      <trkpt lat="45.37586" lon="3.75404">
        <ele>684.09997558594</ele>
        <time>2012-06-05T07:25:36Z</time>
      </trkpt>
      <trkpt lat="45.3758" lon="3.75404">
        <ele>683.40002441406</ele>
        <time>2012-06-05T07:25:38Z</time>
      </trkpt>
      <trkpt lat="45.37576" lon="3.75404">
        <ele>685.20001220703</ele>
        <time>2012-06-05T07:25:40Z</time>
      </trkpt>
      <trkpt lat="45.3757" lon="3.75403">
        <ele>686.5</ele>
        <time>2012-06-05T07:25:43Z</time>
      </trkpt>
      <trkpt lat="45.37563" lon="3.75404">
        <ele>687.09997558594</ele>
        <time>2012-06-05T07:25:46Z</time>
      </trkpt>
      <trkpt lat="45.37557" lon="3.75402">
        <ele>687.40002441406</ele>
        <time>2012-06-05T07:25:49Z</time>
      </trkpt>
      <trkpt lat="45.37551" lon="3.75401">
        <ele>687.29998779297</ele>
        <time>2012-06-05T07:25:52Z</time>
      </trkpt>
      <trkpt lat="45.37545" lon="3.754">
        <ele>687.40002441406</ele>
        <time>2012-06-05T07:25:55Z</time>
      </trkpt>
      <trkpt lat="45.37539" lon="3.75399">
        <ele>687.5</ele>
        <time>2012-06-05T07:25:58Z</time>
      </trkpt>
      <trkpt lat="45.37532" lon="3.75398">
        <ele>687.79998779297</ele>
        <time>2012-06-05T07:26:01Z</time>
      </trkpt>
      <trkpt lat="45.37526" lon="3.75398">
        <ele>690.90002441406</ele>
        <time>2012-06-05T07:26:04Z</time>
      </trkpt>
      <trkpt lat="45.37522" lon="3.75402">
        <ele>689.40002441406</ele>
        <time>2012-06-05T07:26:07Z</time>
      </trkpt>
      <trkpt lat="45.37519" lon="3.75409">
        <ele>688.79998779297</ele>
        <time>2012-06-05T07:26:10Z</time>
      </trkpt>
      <trkpt lat="45.37515" lon="3.75416">
        <ele>689.79998779297</ele>
        <time>2012-06-05T07:26:13Z</time>
      </trkpt>
      <trkpt lat="45.37508" lon="3.75445">
        <ele>689.29998779297</ele>
        <time>2012-06-05T07:26:23Z</time>
      </trkpt>
      <trkpt lat="45.37507" lon="3.75452">
        <ele>687</ele>
        <time>2012-06-05T07:26:24Z</time>
      </trkpt>
      <trkpt lat="45.37505" lon="3.75457">
        <ele>686.70001220703</ele>
        <time>2012-06-05T07:26:26Z</time>
      </trkpt>
      <trkpt lat="45.375" lon="3.75464">
        <ele>688.20001220703</ele>
        <time>2012-06-05T07:26:29Z</time>
      </trkpt>
      <trkpt lat="45.37497" lon="3.75468">
        <ele>689.40002441406</ele>
        <time>2012-06-05T07:26:32Z</time>
      </trkpt>
      <trkpt lat="45.37494" lon="3.75474">
        <ele>689.90002441406</ele>
        <time>2012-06-05T07:26:34Z</time>
      </trkpt>
      <trkpt lat="45.37487" lon="3.75491">
        <ele>691.90002441406</ele>
        <time>2012-06-05T07:26:41Z</time>
      </trkpt>
      <trkpt lat="45.37482" lon="3.75493">
        <ele>694.79998779297</ele>
        <time>2012-06-05T07:26:42Z</time>
      </trkpt>
      <trkpt lat="45.3748" lon="3.75499">
        <ele>696.90002441406</ele>
        <time>2012-06-05T07:26:44Z</time>
      </trkpt>
      <trkpt lat="45.37477" lon="3.75506">
        <ele>694.5</ele>
        <time>2012-06-05T07:26:47Z</time>
      </trkpt>
      <trkpt lat="45.37472" lon="3.75514">
        <ele>695.09997558594</ele>
        <time>2012-06-05T07:26:52Z</time>
      </trkpt>
      <trkpt lat="45.37468" lon="3.75533">
        <ele>692.20001220703</ele>
        <time>2012-06-05T07:27:07Z</time>
      </trkpt>
      <trkpt lat="45.37458" lon="3.75539">
        <ele>691.90002441406</ele>
        <time>2012-06-05T07:27:10Z</time>
      </trkpt>
      <trkpt lat="45.37456" lon="3.75546">
        <ele>684.70001220703</ele>
        <time>2012-06-05T07:27:14Z</time>
      </trkpt>
      <trkpt lat="45.37456" lon="3.75553">
        <ele>683.90002441406</ele>
        <time>2012-06-05T07:27:17Z</time>
      </trkpt>
      <trkpt lat="45.3746" lon="3.75559">
        <ele>681.5</ele>
        <time>2012-06-05T07:27:18Z</time>
      </trkpt>
      <trkpt lat="45.37463" lon="3.75566">
        <ele>679.90002441406</ele>
        <time>2012-06-05T07:27:21Z</time>
      </trkpt>
      <trkpt lat="45.37468" lon="3.75567">
        <ele>674.70001220703</ele>
        <time>2012-06-05T07:27:25Z</time>
      </trkpt>
      <trkpt lat="45.37474" lon="3.75577">
        <ele>673.70001220703</ele>
        <time>2012-06-05T07:27:31Z</time>
      </trkpt>
      <trkpt lat="45.37479" lon="3.75581">
        <ele>673.79998779297</ele>
        <time>2012-06-05T07:27:33Z</time>
      </trkpt>
      <trkpt lat="45.37484" lon="3.75585">
        <ele>673.59997558594</ele>
        <time>2012-06-05T07:27:35Z</time>
      </trkpt>
      <trkpt lat="45.37489" lon="3.75586">
        <ele>672.79998779297</ele>
        <time>2012-06-05T07:27:38Z</time>
      </trkpt>
      <trkpt lat="45.37493" lon="3.75583">
        <ele>672.59997558594</ele>
        <time>2012-06-05T07:27:40Z</time>
      </trkpt>
      <trkpt lat="45.37497" lon="3.75577">
        <ele>672.70001220703</ele>
        <time>2012-06-05T07:27:43Z</time>
      </trkpt>
      <trkpt lat="45.37501" lon="3.75572">
        <ele>670.5</ele>
        <time>2012-06-05T07:27:47Z</time>
      </trkpt>
      <trkpt lat="45.3751" lon="3.75571">
        <ele>672.5</ele>
        <time>2012-06-05T07:27:52Z</time>
      </trkpt>
      <trkpt lat="45.37517" lon="3.7557">
        <ele>670.5</ele>
        <time>2012-06-05T07:27:55Z</time>
      </trkpt>
      <trkpt lat="45.37523" lon="3.7557">
        <ele>671.40002441406</ele>
        <time>2012-06-05T07:27:58Z</time>
      </trkpt>
      <trkpt lat="45.37528" lon="3.75571">
        <ele>673.5</ele>
        <time>2012-06-05T07:28:01Z</time>
      </trkpt>
      <trkpt lat="45.37538" lon="3.75571">
        <ele>676.20001220703</ele>
        <time>2012-06-05T07:28:05Z</time>
      </trkpt>
      <trkpt lat="45.37542" lon="3.75565">
        <ele>670.40002441406</ele>
        <time>2012-06-05T07:28:09Z</time>
      </trkpt>
      <trkpt lat="45.37548" lon="3.75561">
        <ele>671.09997558594</ele>
        <time>2012-06-05T07:28:12Z</time>
      </trkpt>
      <trkpt lat="45.37553" lon="3.7556">
        <ele>670.70001220703</ele>
        <time>2012-06-05T07:28:14Z</time>
      </trkpt>
      <trkpt lat="45.37559" lon="3.75556">
        <ele>670.20001220703</ele>
        <time>2012-06-05T07:28:17Z</time>
      </trkpt>
      <trkpt lat="45.37564" lon="3.75551">
        <ele>671</ele>
        <time>2012-06-05T07:28:19Z</time>
      </trkpt>
      <trkpt lat="45.37568" lon="3.75547">
        <ele>669.20001220703</ele>
        <time>2012-06-05T07:28:22Z</time>
      </trkpt>
      <trkpt lat="45.37575" lon="3.75545">
        <ele>671</ele>
        <time>2012-06-05T07:28:25Z</time>
      </trkpt>
      <trkpt lat="45.3758" lon="3.7554">
        <ele>672.20001220703</ele>
        <time>2012-06-05T07:28:28Z</time>
      </trkpt>
      <trkpt lat="45.37585" lon="3.75539">
        <ele>670.59997558594</ele>
        <time>2012-06-05T07:28:31Z</time>
      </trkpt>
      <trkpt lat="45.37591" lon="3.75538">
        <ele>667.40002441406</ele>
        <time>2012-06-05T07:28:33Z</time>
      </trkpt>
      <trkpt lat="45.37609" lon="3.75539">
        <ele>668.5</ele>
        <time>2012-06-05T07:28:41Z</time>
      </trkpt>
      <trkpt lat="45.37612" lon="3.75545">
        <ele>668.59997558594</ele>
        <time>2012-06-05T07:28:44Z</time>
      </trkpt>
      <trkpt lat="45.37615" lon="3.75555">
        <ele>668.09997558594</ele>
        <time>2012-06-05T07:28:49Z</time>
      </trkpt>
      <trkpt lat="45.37616" lon="3.75562">
        <ele>669</ele>
        <time>2012-06-05T07:28:51Z</time>
      </trkpt>
      <trkpt lat="45.37619" lon="3.7557">
        <ele>670.20001220703</ele>
        <time>2012-06-05T07:28:55Z</time>
      </trkpt>
      <trkpt lat="45.37621" lon="3.75578">
        <ele>670.40002441406</ele>
        <time>2012-06-05T07:28:57Z</time>
      </trkpt>
      <trkpt lat="45.37624" lon="3.75588">
        <ele>669.40002441406</ele>
        <time>2012-06-05T07:29:00Z</time>
      </trkpt>
      <trkpt lat="45.37624" lon="3.75594">
        <ele>668.5</ele>
        <time>2012-06-05T07:29:02Z</time>
      </trkpt>
      <trkpt lat="45.37628" lon="3.75599">
        <ele>669</ele>
        <time>2012-06-05T07:29:04Z</time>
      </trkpt>
      <trkpt lat="45.37634" lon="3.75609">
        <ele>669.40002441406</ele>
        <time>2012-06-05T07:29:09Z</time>
      </trkpt>
      <trkpt lat="45.37637" lon="3.75615">
        <ele>669.79998779297</ele>
        <time>2012-06-05T07:29:11Z</time>
      </trkpt>
      <trkpt lat="45.37641" lon="3.75628">
        <ele>669</ele>
        <time>2012-06-05T07:29:16Z</time>
      </trkpt>
      <trkpt lat="45.37642" lon="3.75636">
        <ele>667.70001220703</ele>
        <time>2012-06-05T07:29:19Z</time>
      </trkpt>
      <trkpt lat="45.37644" lon="3.75643">
        <ele>669.09997558594</ele>
        <time>2012-06-05T07:29:22Z</time>
      </trkpt>
      <trkpt lat="45.37646" lon="3.7565">
        <ele>669.90002441406</ele>
        <time>2012-06-05T07:29:24Z</time>
      </trkpt>
      <trkpt lat="45.37648" lon="3.75658">
        <ele>668.79998779297</ele>
        <time>2012-06-05T07:29:27Z</time>
      </trkpt>
      <trkpt lat="45.37651" lon="3.75677">
        <ele>668.40002441406</ele>
        <time>2012-06-05T07:29:33Z</time>
      </trkpt>
      <trkpt lat="45.37652" lon="3.75683">
        <ele>669</ele>
        <time>2012-06-05T07:29:35Z</time>
      </trkpt>
      <trkpt lat="45.37655" lon="3.7569">
        <ele>666.79998779297</ele>
        <time>2012-06-05T07:29:39Z</time>
      </trkpt>
      <trkpt lat="45.37656" lon="3.75705">
        <ele>663.09997558594</ele>
        <time>2012-06-05T07:29:44Z</time>
      </trkpt>
      <trkpt lat="45.37654" lon="3.75727">
        <ele>663.90002441406</ele>
        <time>2012-06-05T07:29:51Z</time>
      </trkpt>
      <trkpt lat="45.37658" lon="3.75735">
        <ele>663.40002441406</ele>
        <time>2012-06-05T07:29:54Z</time>
      </trkpt>
      <trkpt lat="45.3766" lon="3.75747">
        <ele>663.5</ele>
        <time>2012-06-05T07:29:59Z</time>
      </trkpt>
      <trkpt lat="45.37666" lon="3.75748">
        <ele>665.29998779297</ele>
        <time>2012-06-05T07:30:01Z</time>
      </trkpt>
      <trkpt lat="45.37673" lon="3.75754">
        <ele>665.40002441406</ele>
        <time>2012-06-05T07:30:04Z</time>
      </trkpt>
      <trkpt lat="45.37677" lon="3.75759">
        <ele>666.90002441406</ele>
        <time>2012-06-05T07:30:06Z</time>
      </trkpt>
      <trkpt lat="45.37681" lon="3.75761">
        <ele>667.59997558594</ele>
        <time>2012-06-05T07:30:08Z</time>
      </trkpt>
      <trkpt lat="45.377" lon="3.7575">
        <ele>666.5</ele>
        <time>2012-06-05T07:30:15Z</time>
      </trkpt>
      <trkpt lat="45.37712" lon="3.75734">
        <ele>669.29998779297</ele>
        <time>2012-06-05T07:30:21Z</time>
      </trkpt>
      <trkpt lat="45.37715" lon="3.75728">
        <ele>669.20001220703</ele>
        <time>2012-06-05T07:30:25Z</time>
      </trkpt>
      <trkpt lat="45.37717" lon="3.75721">
        <ele>670.59997558594</ele>
        <time>2012-06-05T07:30:29Z</time>
      </trkpt>
      <trkpt lat="45.37722" lon="3.75715">
        <ele>672</ele>
        <time>2012-06-05T07:30:33Z</time>
      </trkpt>
      <trkpt lat="45.37724" lon="3.75708">
        <ele>670.79998779297</ele>
        <time>2012-06-05T07:30:36Z</time>
      </trkpt>
      <trkpt lat="45.37726" lon="3.75701">
        <ele>673.40002441406</ele>
        <time>2012-06-05T07:30:38Z</time>
      </trkpt>
      <trkpt lat="45.37729" lon="3.75695">
        <ele>672.40002441406</ele>
        <time>2012-06-05T07:30:41Z</time>
      </trkpt>
      <trkpt lat="45.37735" lon="3.75691">
        <ele>673</ele>
        <time>2012-06-05T07:30:44Z</time>
      </trkpt>
      <trkpt lat="45.37747" lon="3.75689">
        <ele>677.70001220703</ele>
        <time>2012-06-05T07:30:49Z</time>
      </trkpt>
      <trkpt lat="45.37753" lon="3.75687">
        <ele>678.90002441406</ele>
        <time>2012-06-05T07:30:52Z</time>
      </trkpt>
      <trkpt lat="45.37758" lon="3.75687">
        <ele>678.40002441406</ele>
        <time>2012-06-05T07:30:55Z</time>
      </trkpt>
      <trkpt lat="45.37764" lon="3.75685">
        <ele>676.90002441406</ele>
        <time>2012-06-05T07:30:58Z</time>
      </trkpt>
      <trkpt lat="45.37769" lon="3.75683">
        <ele>676.40002441406</ele>
        <time>2012-06-05T07:31:00Z</time>
      </trkpt>
      <trkpt lat="45.37775" lon="3.7568">
        <ele>676.59997558594</ele>
        <time>2012-06-05T07:31:03Z</time>
      </trkpt>
      <trkpt lat="45.3778" lon="3.75676">
        <ele>677.40002441406</ele>
        <time>2012-06-05T07:31:06Z</time>
      </trkpt>
      <trkpt lat="45.37784" lon="3.75674">
        <ele>677.5</ele>
        <time>2012-06-05T07:31:08Z</time>
      </trkpt>
      <trkpt lat="45.37788" lon="3.7567">
        <ele>678</ele>
        <time>2012-06-05T07:31:10Z</time>
      </trkpt>
      <trkpt lat="45.378" lon="3.75665">
        <ele>678.29998779297</ele>
        <time>2012-06-05T07:31:15Z</time>
      </trkpt>
      <trkpt lat="45.37804" lon="3.75659">
        <ele>678.79998779297</ele>
        <time>2012-06-05T07:31:18Z</time>
      </trkpt>
      <trkpt lat="45.37819" lon="3.75645">
        <ele>682.29998779297</ele>
        <time>2012-06-05T07:31:28Z</time>
      </trkpt>
      <trkpt lat="45.37822" lon="3.75641">
        <ele>681.09997558594</ele>
        <time>2012-06-05T07:31:31Z</time>
      </trkpt>
      <trkpt lat="45.37827" lon="3.75638">
        <ele>682.5</ele>
        <time>2012-06-05T07:31:32Z</time>
      </trkpt>
      <trkpt lat="45.37834" lon="3.75631">
        <ele>685.70001220703</ele>
        <time>2012-06-05T07:31:34Z</time>
      </trkpt>
      <trkpt lat="45.37837" lon="3.75626">
        <ele>682.09997558594</ele>
        <time>2012-06-05T07:31:37Z</time>
      </trkpt>
      <trkpt lat="45.3784" lon="3.75621">
        <ele>680</ele>
        <time>2012-06-05T07:31:40Z</time>
      </trkpt>
      <trkpt lat="45.37849" lon="3.75616">
        <ele>679.79998779297</ele>
        <time>2012-06-05T07:31:44Z</time>
      </trkpt>
      <trkpt lat="45.37852" lon="3.75609">
        <ele>679.29998779297</ele>
        <time>2012-06-05T07:31:46Z</time>
      </trkpt>
      <trkpt lat="45.37857" lon="3.75607">
        <ele>678.29998779297</ele>
        <time>2012-06-05T07:31:50Z</time>
      </trkpt>
      <trkpt lat="45.37861" lon="3.75604">
        <ele>679.59997558594</ele>
        <time>2012-06-05T07:31:52Z</time>
      </trkpt>
      <trkpt lat="45.37867" lon="3.75601">
        <ele>680.29998779297</ele>
        <time>2012-06-05T07:31:56Z</time>
      </trkpt>
      <trkpt lat="45.37872" lon="3.75601">
        <ele>679.40002441406</ele>
        <time>2012-06-05T07:31:57Z</time>
      </trkpt>
      <trkpt lat="45.37876" lon="3.75598">
        <ele>679.70001220703</ele>
        <time>2012-06-05T07:31:59Z</time>
      </trkpt>
      <trkpt lat="45.37883" lon="3.75596">
        <ele>679.20001220703</ele>
        <time>2012-06-05T07:32:02Z</time>
      </trkpt>
      <trkpt lat="45.37887" lon="3.75593">
        <ele>679.40002441406</ele>
        <time>2012-06-05T07:32:04Z</time>
      </trkpt>
      <trkpt lat="45.37892" lon="3.75591">
        <ele>680.29998779297</ele>
        <time>2012-06-05T07:32:06Z</time>
      </trkpt>
      <trkpt lat="45.37897" lon="3.75588">
        <ele>680.79998779297</ele>
        <time>2012-06-05T07:32:09Z</time>
      </trkpt>
      <trkpt lat="45.37901" lon="3.75585">
        <ele>681.5</ele>
        <time>2012-06-05T07:32:11Z</time>
      </trkpt>
      <trkpt lat="45.37907" lon="3.75583">
        <ele>682</ele>
        <time>2012-06-05T07:32:13Z</time>
      </trkpt>
      <trkpt lat="45.37912" lon="3.75579">
        <ele>681.59997558594</ele>
        <time>2012-06-05T07:32:16Z</time>
      </trkpt>
      <trkpt lat="45.37919" lon="3.75576">
        <ele>683.59997558594</ele>
        <time>2012-06-05T07:32:19Z</time>
      </trkpt>
      <trkpt lat="45.3793" lon="3.75565">
        <ele>680.5</ele>
        <time>2012-06-05T07:32:27Z</time>
      </trkpt>
      <trkpt lat="45.37934" lon="3.75563">
        <ele>681.84942626953</ele>
        <time>2012-06-05T07:32:28Z</time>
      </trkpt>
      <trkpt lat="45.37937" lon="3.75557">
        <ele>677.90002441406</ele>
        <time>2012-06-05T07:32:30Z</time>
      </trkpt>
      <trkpt lat="45.3794" lon="3.75553">
        <ele>676.5</ele>
        <time>2012-06-05T07:32:32Z</time>
      </trkpt>
      <trkpt lat="45.37944" lon="3.75548">
        <ele>676.79998779297</ele>
        <time>2012-06-05T07:32:35Z</time>
      </trkpt>
      <trkpt lat="45.3795" lon="3.75544">
        <ele>676.40002441406</ele>
        <time>2012-06-05T07:32:38Z</time>
      </trkpt>
      <trkpt lat="45.37954" lon="3.75543">
        <ele>677.59997558594</ele>
        <time>2012-06-05T07:32:40Z</time>
      </trkpt>
      <trkpt lat="45.37977" lon="3.75523">
        <ele>675.59997558594</ele>
        <time>2012-06-05T07:32:53Z</time>
      </trkpt>
      <trkpt lat="45.37982" lon="3.75521">
        <ele>675</ele>
        <time>2012-06-05T07:32:54Z</time>
      </trkpt>
      <trkpt lat="45.37987" lon="3.75518">
        <ele>674</ele>
        <time>2012-06-05T07:32:57Z</time>
      </trkpt>
      <trkpt lat="45.37992" lon="3.75515">
        <ele>674.40002441406</ele>
        <time>2012-06-05T07:32:59Z</time>
      </trkpt>
      <trkpt lat="45.38002" lon="3.75511">
        <ele>674.29998779297</ele>
        <time>2012-06-05T07:33:03Z</time>
      </trkpt>
      <trkpt lat="45.38008" lon="3.75508">
        <ele>672.79998779297</ele>
        <time>2012-06-05T07:33:06Z</time>
      </trkpt>
      <trkpt lat="45.38012" lon="3.75501">
        <ele>667.20001220703</ele>
        <time>2012-06-05T07:33:09Z</time>
      </trkpt>
      <trkpt lat="45.38016" lon="3.75498">
        <ele>666.29998779297</ele>
        <time>2012-06-05T07:33:11Z</time>
      </trkpt>
      <trkpt lat="45.38021" lon="3.75494">
        <ele>666.09997558594</ele>
        <time>2012-06-05T07:33:13Z</time>
      </trkpt>
      <trkpt lat="45.38027" lon="3.75492">
        <ele>667.5</ele>
        <time>2012-06-05T07:33:16Z</time>
      </trkpt>
      <trkpt lat="45.38032" lon="3.75489">
        <ele>668.40002441406</ele>
        <time>2012-06-05T07:33:18Z</time>
      </trkpt>
      <trkpt lat="45.38037" lon="3.75488">
        <ele>668.79998779297</ele>
        <time>2012-06-05T07:33:20Z</time>
      </trkpt>
      <trkpt lat="45.38053" lon="3.75478">
        <ele>669.5</ele>
        <time>2012-06-05T07:33:29Z</time>
      </trkpt>
      <trkpt lat="45.38058" lon="3.75474">
        <ele>670.09997558594</ele>
        <time>2012-06-05T07:33:31Z</time>
      </trkpt>
      <trkpt lat="45.38062" lon="3.75471">
        <ele>670</ele>
        <time>2012-06-05T07:33:33Z</time>
      </trkpt>
      <trkpt lat="45.38066" lon="3.75467">
        <ele>670</ele>
        <time>2012-06-05T07:33:35Z</time>
      </trkpt>
      <trkpt lat="45.38071" lon="3.75463">
        <ele>669.29998779297</ele>
        <time>2012-06-05T07:33:38Z</time>
      </trkpt>
      <trkpt lat="45.38075" lon="3.7546">
        <ele>667.40002441406</ele>
        <time>2012-06-05T07:33:40Z</time>
      </trkpt>
      <trkpt lat="45.3808" lon="3.75457">
        <ele>669.70001220703</ele>
        <time>2012-06-05T07:33:42Z</time>
      </trkpt>
      <trkpt lat="45.38084" lon="3.75452">
        <ele>669</ele>
        <time>2012-06-05T07:33:45Z</time>
      </trkpt>
      <trkpt lat="45.38088" lon="3.75448">
        <ele>669.5</ele>
        <time>2012-06-05T07:33:47Z</time>
      </trkpt>
      <trkpt lat="45.38091" lon="3.75442">
        <ele>670.09997558594</ele>
        <time>2012-06-05T07:33:50Z</time>
      </trkpt>
      <trkpt lat="45.38095" lon="3.75435">
        <ele>672.70001220703</ele>
        <time>2012-06-05T07:33:53Z</time>
      </trkpt>
      <trkpt lat="45.38098" lon="3.7543">
        <ele>673.29998779297</ele>
        <time>2012-06-05T07:33:55Z</time>
      </trkpt>
      <trkpt lat="45.38101" lon="3.75423">
        <ele>672.59997558594</ele>
        <time>2012-06-05T07:33:58Z</time>
      </trkpt>
      <trkpt lat="45.38119" lon="3.75398">
        <ele>668.59997558594</ele>
        <time>2012-06-05T07:34:08Z</time>
      </trkpt>
      <trkpt lat="45.38122" lon="3.75393">
        <ele>667.90002441406</ele>
        <time>2012-06-05T07:34:10Z</time>
      </trkpt>
      <trkpt lat="45.38128" lon="3.75389">
        <ele>667.70001220703</ele>
        <time>2012-06-05T07:34:13Z</time>
      </trkpt>
      <trkpt lat="45.38132" lon="3.75384">
        <ele>667.40002441406</ele>
        <time>2012-06-05T07:34:16Z</time>
      </trkpt>
      <trkpt lat="45.38136" lon="3.75378">
        <ele>666.20001220703</ele>
        <time>2012-06-05T07:34:19Z</time>
      </trkpt>
      <trkpt lat="45.3814" lon="3.75374">
        <ele>665.79998779297</ele>
        <time>2012-06-05T07:34:21Z</time>
      </trkpt>
      <trkpt lat="45.38144" lon="3.75371">
        <ele>665.5</ele>
        <time>2012-06-05T07:34:23Z</time>
      </trkpt>
      <trkpt lat="45.3815" lon="3.75362">
        <ele>667.79998779297</ele>
        <time>2012-06-05T07:34:27Z</time>
      </trkpt>
      <trkpt lat="45.38154" lon="3.75358">
        <ele>667.70001220703</ele>
        <time>2012-06-05T07:34:29Z</time>
      </trkpt>
      <trkpt lat="45.38172" lon="3.75342">
        <ele>668.59997558594</ele>
        <time>2012-06-05T07:34:37Z</time>
      </trkpt>
      <trkpt lat="45.38177" lon="3.75336">
        <ele>669.70001220703</ele>
        <time>2012-06-05T07:34:39Z</time>
      </trkpt>
      <trkpt lat="45.38184" lon="3.75331">
        <ele>667.90002441406</ele>
        <time>2012-06-05T07:34:42Z</time>
      </trkpt>
      <trkpt lat="45.3819" lon="3.75329">
        <ele>668.40002441406</ele>
        <time>2012-06-05T07:34:45Z</time>
      </trkpt>
      <trkpt lat="45.38195" lon="3.75325">
        <ele>667.40002441406</ele>
        <time>2012-06-05T07:34:47Z</time>
      </trkpt>
      <trkpt lat="45.38198" lon="3.75319">
        <ele>664.79998779297</ele>
        <time>2012-06-05T07:34:50Z</time>
      </trkpt>
      <trkpt lat="45.38201" lon="3.75312">
        <ele>664.20001220703</ele>
        <time>2012-06-05T07:34:53Z</time>
      </trkpt>
      <trkpt lat="45.38205" lon="3.75307">
        <ele>663.29998779297</ele>
        <time>2012-06-05T07:34:55Z</time>
      </trkpt>
      <trkpt lat="45.38209" lon="3.75299">
        <ele>662.90002441406</ele>
        <time>2012-06-05T07:34:58Z</time>
      </trkpt>
      <trkpt lat="45.3822" lon="3.75285">
        <ele>662.29998779297</ele>
        <time>2012-06-05T07:35:05Z</time>
      </trkpt>
      <trkpt lat="45.38236" lon="3.7527">
        <ele>662.09997558594</ele>
        <time>2012-06-05T07:35:14Z</time>
      </trkpt>
      <trkpt lat="45.38241" lon="3.75265">
        <ele>661.70001220703</ele>
        <time>2012-06-05T07:35:17Z</time>
      </trkpt>
      <trkpt lat="45.38243" lon="3.75258">
        <ele>663.29998779297</ele>
        <time>2012-06-05T07:35:20Z</time>
      </trkpt>
      <trkpt lat="45.38248" lon="3.75253">
        <ele>663.20001220703</ele>
        <time>2012-06-05T07:35:23Z</time>
      </trkpt>
      <trkpt lat="45.38255" lon="3.75247">
        <ele>664.09997558594</ele>
        <time>2012-06-05T07:35:26Z</time>
      </trkpt>
      <trkpt lat="45.3826" lon="3.75243">
        <ele>663.90002441406</ele>
        <time>2012-06-05T07:35:30Z</time>
      </trkpt>
      <trkpt lat="45.3827" lon="3.75234">
        <ele>665</ele>
        <time>2012-06-05T07:35:33Z</time>
      </trkpt>
      <trkpt lat="45.38275" lon="3.7523">
        <ele>664.79998779297</ele>
        <time>2012-06-05T07:35:35Z</time>
      </trkpt>
      <trkpt lat="45.38279" lon="3.75225">
        <ele>664.40002441406</ele>
        <time>2012-06-05T07:35:36Z</time>
      </trkpt>
      <trkpt lat="45.38286" lon="3.75224">
        <ele>670.33703613281</ele>
        <time>2012-06-05T07:35:37Z</time>
      </trkpt>
      <trkpt lat="45.38291" lon="3.75217">
        <ele>672.70001220703</ele>
        <time>2012-06-05T07:35:40Z</time>
      </trkpt>
      <trkpt lat="45.38303" lon="3.75193">
        <ele>672</ele>
        <time>2012-06-05T07:35:47Z</time>
      </trkpt>
      <trkpt lat="45.38313" lon="3.7518">
        <ele>672.40002441406</ele>
        <time>2012-06-05T07:35:51Z</time>
      </trkpt>
      <trkpt lat="45.38303" lon="3.75173">
        <ele>670.70001220703</ele>
        <time>2012-06-05T07:35:53Z</time>
      </trkpt>
      <trkpt lat="45.38299" lon="3.75171">
        <ele>670.59997558594</ele>
        <time>2012-06-05T07:35:54Z</time>
      </trkpt>
      <trkpt lat="45.38297" lon="3.75171">
        <ele>670.09777832031</ele>
        <time>2012-06-05T07:35:54Z</time>
      </trkpt>
      <trkpt lat="45.38295" lon="3.75163">
        <ele>671.09997558594</ele>
        <time>2012-06-05T07:35:57Z</time>
      </trkpt>
      <trkpt lat="45.38299" lon="3.75156">
        <ele>675.20001220703</ele>
        <time>2012-06-05T07:35:59Z</time>
      </trkpt>
      <trkpt lat="45.383" lon="3.75149">
        <ele>673.09997558594</ele>
        <time>2012-06-05T07:36:01Z</time>
      </trkpt>
      <trkpt lat="45.383" lon="3.7514">
        <ele>671.20001220703</ele>
        <time>2012-06-05T07:36:03Z</time>
      </trkpt>
      <trkpt lat="45.38299" lon="3.75134">
        <ele>668</ele>
        <time>2012-06-05T07:36:05Z</time>
      </trkpt>
      <trkpt lat="45.38298" lon="3.75124">
        <ele>666.90002441406</ele>
        <time>2012-06-05T07:36:09Z</time>
      </trkpt>
      <trkpt lat="45.38293" lon="3.7512">
        <ele>665</ele>
        <time>2012-06-05T07:36:12Z</time>
      </trkpt>
      <trkpt lat="45.38288" lon="3.75118">
        <ele>667.90002441406</ele>
        <time>2012-06-05T07:36:14Z</time>
      </trkpt>
    </trkseg>
  </trk>
</gpx>